Terminal Aerodrome Forecast
Issued by NWS St Louis, MO

Home | Current Version | Previous Version | Text Only | Print | Product List | Glossary On
Versions: 1 2 3 4 5 6 7 8 9 10 11 12 13 14 15 16 17
000
FTUS43 KLSX 152300
TAFCOU
TAF
KCOU 152336Z 1600/1624 36010KT P6SM SCT013 OVC035
      TEMPO 1600/1603 BKN013
     FM160300 36005KT P6SM OVC010
     FM160600 02004KT 2SM BR OVC007
     FM161500 07005KT P6SM SCT025=

USA.gov is the U.S. government's official web portal to all federal, state and local government web resources and services.